Flight Track Log - Related Links

Times and Time Zones

All times are in EDT time to prevent confusion due to time zone crossing. See the ASH3797 flight status page for this flight to view local times or setup timezone preferences in your user account.

Time Position Orientation Groundspeed Altitude Reporting Facility
EDT Latitude Longitude Course Direction KTS MPH feet Rate Location/Type
Sun 10:15:07 AM 42.9333 -78.7500 270° West 157 181 1,400  Level Buffalo TRACON
Sun 10:16:01 AM 42.9167 -78.7833 236° Southwest 168 193 3,100 2,316 Climbing Buffalo TRACON
Sun 10:17:01 AM 42.9333 -78.8500 289° West 205 236 5,800 2,578 Climbing Buffalo TRACON
Sun 10:18:09 AM 42.9167 -78.9333 255° West 230 265 8,600 2,391 Climbing Toronto Center
Sun 10:19:00 AM 42.9667 -79.3604 270° West  Level FlightAware Approximate
Sun 10:19:09 AM 42.9333 -79.0333 283° West 260 299 10,900  Level Toronto Center
Sun 10:20:00 AM 42.9667 -79.4899 270° West  Level FlightAware Approximate
Sun 10:20:09 AM 42.9333 -79.1500 270° West 280 322 13,600  Level Toronto Center
Sun 10:21:09 AM 42.9333 -79.2500 270° West 290 334 16,100 2,250 Climbing Toronto Center
Sun 10:22:09 AM 42.9500 -79.3667 281° West 300 345 18,100 2,050 Climbing Toronto Center
Sun 10:23:09 AM 42.9500 -79.4667 270° West 310 357 20,200 2,100 Climbing Toronto Center
Sun 10:24:09 AM 42.9667 -79.6167 279° West 320 368 22,300 1,900 Climbing Toronto Center
Sun 10:25:09 AM 42.9667 -79.7167 270° West 320 368 24,000 1,800 Climbing Toronto Center
Sun 10:26:09 AM 42.9667 -79.8667 270° West 330 380 25,900 1,650 Climbing Toronto Center
Sun 10:27:09 AM 42.9833 -79.9667 283° West 330 380 27,300 850 Climbing Toronto Center
Sun 10:28:09 AM 42.9833 -80.1333 270° West 360 414 27,600 750 Climbing Toronto Center
Sun 10:29:09 AM 43.0000 -80.2667 280° West 380 437 28,800 1,100 Climbing Toronto Center
Sun 10:30:09 AM 43.0000 -80.4000 270° West 390 449 29,800 600 Climbing Toronto Center
Sun 10:31:09 AM 43.0000 -80.5667 270° West 390 449 30,000 100 Climbing Toronto Center
Sun 10:32:09 AM 43.0167 -80.7000 280° West 390 449 30,000  Level Toronto Center
Sun 10:33:09 AM 43.0000 -80.8333 260° West 380 437 30,000  Level Toronto Center
Sun 10:34:09 AM 43.0167 -81.0000 278° West 390 449 30,000  Level Toronto Center
Sun 10:35:09 AM 43.0167 -81.1333 270° West 390 449 30,000  Level Toronto Center
Sun 10:36:09 AM 43.0167 -81.3000 270° West 390 449 30,000  Level Toronto Center
Sun 10:37:09 AM 43.0167 -81.4500 270° West 400 460 30,000  Level Toronto Center
Sun 10:38:09 AM 43.0167 -81.6000 270° West 400 460 30,000  Level Toronto Center
Sun 10:39:09 AM 43.0167 -81.7500 270° West 400 460 30,000  Level Toronto Center
Sun 10:40:09 AM 43.0000 -81.9167 262° West 400 460 30,000  Level Toronto Center
Sun 10:41:09 AM 43.0000 -82.0500 270° West 390 449 30,000  Level Toronto Center
Sun 10:42:09 AM 43.0000 -82.2167 270° West 390 449 30,000  Level Toronto Center
Sun 10:43:09 AM 43.0000 -82.3500 270° West 390 449 30,000  Level Toronto Center
Sun 10:44:09 AM 43.0000 -82.5000 270° West 390 449 30,000  Level Toronto Center
Sun 10:45:09 AM 42.9833 -82.6500 261° West 390 449 30,000 -77 Level Toronto Center
Sun 10:45:27 AM 43.0017 -82.6839 306° West 400 460 29,900 -1,000 Descending Cleveland Center
Sun 10:46:27 AM 42.9989 -82.8314 269° West 400 460 28,700 -950 Descending Cleveland Center
Sun 10:47:27 AM 42.9939 -82.9789 267° West 400 460 28,000 -350 Descending Cleveland Center
Sun 10:48:27 AM 42.9844 -83.1233 265° West 400 460 28,000  Level Cleveland Center
Sun 10:49:27 AM 42.9603 -83.2697 257° West 400 460 28,000  Level Cleveland Center
Sun 10:50:27 AM 42.9336 -83.4247 257° West 405 466 28,000  Level Cleveland Center
Sun 10:51:27 AM 42.9258 -83.5661 266° West 410 472 28,000  Level Cleveland Center
Sun 10:52:27 AM 42.9558 -83.7008 287° West 385 443 28,000  Level Cleveland Center
Sun 10:53:27 AM 42.9558 -83.8514 270° West 385 443 28,000  Level Cleveland Center
Sun 10:54:27 AM 42.9411 -83.9981 262° West 390 449 28,000  Level Cleveland Center
Sun 10:55:27 AM 42.9261 -84.1447 262° West 395 455 28,000  Level Cleveland Center
Sun 10:56:26 AM 42.9133 -84.2939 263° West 394 453 28,000  Level Chicago Center
Sun 10:57:27 AM 42.8989 -84.4392 262° West 390 449 28,000  Level Chicago Center
Sun 10:58:28 AM 42.8839 -84.5889 262° West 396 456 28,000  Level Chicago Center
Sun 10:59:29 AM 42.8692 -84.7367 262° West 396 456 28,000  Level Chicago Center
Sun 11:00:31 AM 42.8533 -84.8897 262° West 404 465 28,000  Level Chicago Center
Sun 11:01:33 AM 42.8378 -85.0392 262° West 402 463 28,000  Level Chicago Center
Sun 11:02:34 AM 42.8208 -85.1867 261° West 398 458 28,000 -590 Level Chicago Center
Sun 11:03:35 AM 42.8017 -85.3642 262° West 396 456 26,800 -1,230 Descending Chicago Center
Sun 11:04:36 AM 42.7836 -85.5144 261° West 399 459 25,500 -1,279 Descending Chicago Center
Sun 11:05:37 AM 42.7578 -85.6578 256° West 394 453 24,200 -1,279 Descending Chicago Center
Sun 11:06:38 AM 42.7319 -85.7981 256° West 383 441 22,900 -1,279 Descending Chicago Center
Sun 11:07:39 AM 42.7083 -85.9333 257° West 370 426 21,600 -1,279 Descending Chicago Center
Sun 11:08:40 AM 42.6850 -86.0642 256° West 357 411 20,300 -787 Descending Chicago Center
Sun 11:09:41 AM 42.6603 -86.1986 256° West 361 415 20,000 -148 Descending Chicago Center
Sun 11:10:42 AM 42.6342 -86.3317 255° West 364 419 20,000 -197 Level Chicago Center
Sun 11:11:43 AM 42.6086 -86.4664 256° West 367 422 19,600 -639 Descending Chicago Center
Sun 11:12:44 AM 42.5831 -86.5994 255° West 366 421 18,700 -934 Descending Chicago Center
Sun 11:13:45 AM 42.5594 -86.7367 257° West 363 418 17,700 -1,328 Descending Chicago Center
Sun 11:14:46 AM 42.5258 -86.8583 249° West 358 412 16,000 -1,869 Descending Chicago Center
Sun 11:15:47 AM 42.4919 -86.9806 249° West 349 402 13,900 -2,164 Descending Chicago Center
Sun 11:16:48 AM 42.4589 -87.0936 248° West 331 381 11,600 -2,115 Descending Chicago Center
Sun 11:17:49 AM 42.4308 -87.1956 250° West 302 348 9,600 -1,268 Descending Chicago Center
Sun 11:18:51 AM 42.4000 -87.3089 250° West 273 314 9,000 -293 Descending Chicago Center
Sun 11:19:52 AM 42.3731 -87.4075 250° West 278 320 9,000 -393 Level Chicago Center
Sun 11:20:53 AM 42.3403 -87.5033 245° Southwest 280 322 8,200 -984 Descending Chicago Center
Sun 11:21:54 AM 42.2858 -87.5761 225° Southwest 276 318 7,000 -639 Descending Chicago Center
Sun 11:22:55 AM 42.2286 -87.6406 220° Southwest 271 312 6,900 -836 Descending Chicago Center
Sun 11:23:56 AM 42.1706 -87.7067 220° Southwest 272 313 5,300 -1,574 Descending Chicago Center

Login

Don't have an account? Register now (free) for customized features, flight alerts, and more!